sensor_id;sensor_type;location;lat;lon;timestamp;P1;durP1;ratioP1;P2;durP2;ratioP2
33794;SDS011;51430;52.242;21.118;2023-02-02T00:01:07;8.80;;;7.80;;
33794;SDS011;51430;52.242;21.118;2023-02-02T00:05:05;9.50;;;7.60;;
33794;SDS011;51430;52.242;21.118;2023-02-02T00:09:01;9.60;;;8.00;;
33794;SDS011;51430;52.242;21.118;2023-02-02T00:17:37;9.60;;;7.50;;
33794;SDS011;51430;52.242;21.118;2023-02-02T00:20:55;9.90;;;8.00;;
33794;SDS011;51430;52.242;21.118;2023-02-02T00:24:54;8.40;;;7.40;;
33794;SDS011;51430;52.242;21.118;2023-02-02T00:28:49;11.10;;;8.30;;
33794;SDS011;51430;52.242;21.118;2023-02-02T00:32:46;10.80;;;7.90;;
33794;SDS011;51430;52.242;21.118;2023-02-02T00:36:46;10.30;;;8.10;;
33794;SDS011;51430;52.242;21.118;2023-02-02T00:41:01;8.90;;;7.70;;
33794;SDS011;51430;52.242;21.118;2023-02-02T00:44:21;9.60;;;7.90;;
33794;SDS011;51430;52.242;21.118;2023-02-02T00:53:22;9.10;;;8.20;;
33794;SDS011;51430;52.242;21.118;2023-02-02T00:56:07;11.80;;;10.10;;
33794;SDS011;51430;52.242;21.118;2023-02-02T00:59:11;12.40;;;10.00;;
33794;SDS011;51430;52.242;21.118;2023-02-02T01:01:56;11.00;;;9.80;;
33794;SDS011;51430;52.242;21.118;2023-02-02T01:04:41;11.20;;;10.10;;
33794;SDS011;51430;52.242;21.118;2023-02-02T01:09:26;12.20;;;9.00;;
33794;SDS011;51430;52.242;21.118;2023-02-02T01:12:57;10.20;;;7.30;;
33794;SDS011;51430;52.242;21.118;2023-02-02T01:17:00;8.90;;;8.00;;
33794;SDS011;51430;52.242;21.118;2023-02-02T01:20:35;10.70;;;8.20;;
33794;SDS011;51430;52.242;21.118;2023-02-02T01:24:32;8.90;;;7.90;;
33794;SDS011;51430;52.242;21.118;2023-02-02T01:34:04;11.40;;;7.60;;
33794;SDS011;51430;52.242;21.118;2023-02-02T02:02:40;14.50;;;8.60;;
33794;SDS011;51430;52.242;21.118;2023-02-02T02:11:35;12.40;;;8.50;;
33794;SDS011;51430;52.242;21.118;2023-02-02T02:18:54;10.10;;;7.90;;
33794;SDS011;51430;52.242;21.118;2023-02-02T02:39:49;13.10;;;11.90;;
33794;SDS011;51430;52.242;21.118;2023-02-02T02:42:49;14.10;;;12.00;;
33794;SDS011;51430;52.242;21.118;2023-02-02T02:45:42;13.30;;;11.90;;
33794;SDS011;51430;52.242;21.118;2023-02-02T02:48:30;12.80;;;11.40;;
33794;SDS011;51430;52.242;21.118;2023-02-02T02:54:36;12.40;;;10.50;;
33794;SDS011;51430;52.242;21.118;2023-02-02T03:05:00;8.70;;;7.10;;
33794;SDS011;51430;52.242;21.118;2023-02-02T03:08:02;10.00;;;9.00;;
33794;SDS011;51430;52.242;21.118;2023-02-02T03:10:50;9.80;;;8.80;;
33794;SDS011;51430;52.242;21.118;2023-02-02T03:13:38;11.80;;;10.30;;
33794;SDS011;51430;52.242;21.118;2023-02-02T03:16:27;13.70;;;10.30;;
33794;SDS011;51430;52.242;21.118;2023-02-02T03:19:13;12.40;;;10.30;;
33794;SDS011;51430;52.242;21.118;2023-02-02T03:22:00;12.70;;;10.80;;
33794;SDS011;51430;52.242;21.118;2023-02-02T03:24:46;17.40;;;12.00;;
33794;SDS011;51430;52.242;21.118;2023-02-02T03:27:33;16.00;;;11.30;;
33794;SDS011;51430;52.242;21.118;2023-02-02T03:40:56;13.50;;;8.80;;
33794;SDS011;51430;52.242;21.118;2023-02-02T03:43:52;13.00;;;7.90;;
33794;SDS011;51430;52.242;21.118;2023-02-02T03:47:47;17.00;;;8.70;;
33794;SDS011;51430;52.242;21.118;2023-02-02T03:51:46;14.50;;;8.30;;
33794;SDS011;51430;52.242;21.118;2023-02-02T03:55:41;17.00;;;8.20;;
33794;SDS011;51430;52.242;21.118;2023-02-02T03:58:28;17.10;;;9.40;;
33794;SDS011;51430;52.242;21.118;2023-02-02T04:01:15;18.80;;;10.10;;
33794;SDS011;51430;52.242;21.118;2023-02-02T04:04:02;19.70;;;9.90;;
33794;SDS011;51430;52.242;21.118;2023-02-02T04:06:49;16.80;;;9.50;;
33794;SDS011;51430;52.242;21.118;2023-02-02T04:09:35;20.90;;;8.90;;
33794;SDS011;51430;52.242;21.118;2023-02-02T04:12:22;18.40;;;8.40;;
33794;SDS011;51430;52.242;21.118;2023-02-02T04:15:08;18.40;;;8.00;;
33794;SDS011;51430;52.242;21.118;2023-02-02T04:17:55;18.50;;;7.90;;
33794;SDS011;51430;52.242;21.118;2023-02-02T04:25:57;14.50;;;5.10;;
33794;SDS011;51430;52.242;21.118;2023-02-02T04:29:59;17.80;;;6.20;;
33794;SDS011;51430;52.242;21.118;2023-02-02T04:33:57;19.00;;;6.70;;
33794;SDS011;51430;52.242;21.118;2023-02-02T04:37:56;23.50;;;6.50;;
33794;SDS011;51430;52.242;21.118;2023-02-02T04:41:51;14.30;;;5.60;;
33794;SDS011;51430;52.242;21.118;2023-02-02T04:45:46;15.40;;;6.00;;
33794;SDS011;51430;52.242;21.118;2023-02-02T04:58:29;17.40;;;6.40;;
33794;SDS011;51430;52.242;21.118;2023-02-02T05:02:27;16.10;;;6.00;;
33794;SDS011;51430;52.242;21.118;2023-02-02T05:06:25;14.80;;;5.80;;
33794;SDS011;51430;52.242;21.118;2023-02-02T05:10:20;14.00;;;5.80;;
33794;SDS011;51430;52.242;21.118;2023-02-02T05:14:18;19.10;;;5.50;;
33794;SDS011;51430;52.242;21.118;2023-02-02T05:17:05;19.80;;;5.30;;
33794;SDS011;51430;52.242;21.118;2023-02-02T05:19:52;16.90;;;5.40;;
33794;SDS011;51430;52.242;21.118;2023-02-02T05:22:38;15.70;;;5.00;;
33794;SDS011;51430;52.242;21.118;2023-02-02T05:25:25;15.50;;;5.30;;
33794;SDS011;51430;52.242;21.118;2023-02-02T05:29:34;14.40;;;4.10;;
33794;SDS011;51430;52.242;21.118;2023-02-02T05:32:21;18.00;;;4.90;;
33794;SDS011;51430;52.242;21.118;2023-02-02T05:35:08;15.70;;;4.40;;
33794;SDS011;51430;52.242;21.118;2023-02-02T05:37:55;14.80;;;4.50;;
33794;SDS011;51430;52.242;21.118;2023-02-02T05:45:27;14.40;;;4.30;;
33794;SDS011;51430;52.242;21.118;2023-02-02T05:48:14;13.60;;;4.50;;
33794;SDS011;51430;52.242;21.118;2023-02-02T05:54:08;15.80;;;4.50;;
33794;SDS011;51430;52.242;21.118;2023-02-02T05:56:54;12.40;;;4.30;;
33794;SDS011;51430;52.242;21.118;2023-02-02T05:59:42;18.20;;;4.70;;
33794;SDS011;51430;52.242;21.118;2023-02-02T06:02:28;15.10;;;4.50;;
33794;SDS011;51430;52.242;21.118;2023-02-02T06:05:15;14.90;;;4.50;;
33794;SDS011;51430;52.242;21.118;2023-02-02T06:09:41;11.60;;;4.00;;
33794;SDS011;51430;52.242;21.118;2023-02-02T06:12:27;15.60;;;4.40;;
33794;SDS011;51430;52.242;21.118;2023-02-02T06:15:14;15.50;;;4.40;;
33794;SDS011;51430;52.242;21.118;2023-02-02T06:18:00;13.40;;;4.40;;
33794;SDS011;51430;52.242;21.118;2023-02-02T06:20:47;13.10;;;4.00;;
33794;SDS011;51430;52.242;21.118;2023-02-02T06:23:33;15.00;;;4.60;;
33794;SDS011;51430;52.242;21.118;2023-02-02T06:26:20;12.70;;;4.00;;
33794;SDS011;51430;52.242;21.118;2023-02-02T06:29:09;14.30;;;4.00;;
33794;SDS011;51430;52.242;21.118;2023-02-02T06:31:58;16.30;;;4.50;;
33794;SDS011;51430;52.242;21.118;2023-02-02T06:34:44;14.90;;;4.60;;
33794;SDS011;51430;52.242;21.118;2023-02-02T06:37:30;13.90;;;4.80;;
33794;SDS011;51430;52.242;21.118;2023-02-02T06:40:19;12.90;;;4.60;;
33794;SDS011;51430;52.242;21.118;2023-02-02T06:43:05;13.40;;;4.50;;
33794;SDS011;51430;52.242;21.118;2023-02-02T06:45:55;13.90;;;4.70;;
33794;SDS011;51430;52.242;21.118;2023-02-02T06:48:43;12.00;;;4.60;;
33794;SDS011;51430;52.242;21.118;2023-02-02T06:51:30;13.40;;;4.50;;
33794;SDS011;51430;52.242;21.118;2023-02-02T06:55:37;7.20;;;3.80;;
33794;SDS011;51430;52.242;21.118;2023-02-02T06:58:24;13.60;;;4.70;;
33794;SDS011;51430;52.242;21.118;2023-02-02T07:01:12;14.30;;;4.40;;
33794;SDS011;51430;52.242;21.118;2023-02-02T07:03:59;13.10;;;4.40;;
33794;SDS011;51430;52.242;21.118;2023-02-02T07:06:46;12.70;;;4.50;;
33794;SDS011;51430;52.242;21.118;2023-02-02T07:09:32;10.80;;;4.60;;
33794;SDS011;51430;52.242;21.118;2023-02-02T07:16:53;11.30;;;4.20;;
33794;SDS011;51430;52.242;21.118;2023-02-02T07:19:39;13.00;;;5.30;;
33794;SDS011;51430;52.242;21.118;2023-02-02T07:22:26;13.30;;;5.30;;
33794;SDS011;51430;52.242;21.118;2023-02-02T07:25:12;11.00;;;5.00;;
33794;SDS011;51430;52.242;21.118;2023-02-02T07:28:00;11.00;;;5.60;;
33794;SDS011;51430;52.242;21.118;2023-02-02T07:30:48;12.30;;;5.60;;
33794;SDS011;51430;52.242;21.118;2023-02-02T07:33:34;10.70;;;5.30;;
33794;SDS011;51430;52.242;21.118;2023-02-02T07:36:26;14.20;;;6.10;;
33794;SDS011;51430;52.242;21.118;2023-02-02T07:39:13;8.90;;;5.30;;
33794;SDS011;51430;52.242;21.118;2023-02-02T07:41:59;11.90;;;5.40;;
33794;SDS011;51430;52.242;21.118;2023-02-02T07:44:46;14.60;;;6.60;;
33794;SDS011;51430;52.242;21.118;2023-02-02T07:47:32;12.80;;;6.50;;
33794;SDS011;51430;52.242;21.118;2023-02-02T07:50:28;13.90;;;7.00;;
33794;SDS011;51430;52.242;21.118;2023-02-02T07:53:16;12.40;;;6.50;;
33794;SDS011;51430;52.242;21.118;2023-02-02T07:56:09;14.00;;;6.60;;
33794;SDS011;51430;52.242;21.118;2023-02-02T07:58:56;11.70;;;6.40;;
33794;SDS011;51430;52.242;21.118;2023-02-02T08:01:43;17.40;;;6.90;;
33794;SDS011;51430;52.242;21.118;2023-02-02T08:04:30;9.80;;;6.30;;
33794;SDS011;51430;52.242;21.118;2023-02-02T08:07:29;12.60;;;6.20;;
33794;SDS011;51430;52.242;21.118;2023-02-02T08:10:17;12.60;;;6.60;;
33794;SDS011;51430;52.242;21.118;2023-02-02T08:13:04;12.20;;;7.10;;
33794;SDS011;51430;52.242;21.118;2023-02-02T08:15:51;10.60;;;7.00;;
33794;SDS011;51430;52.242;21.118;2023-02-02T08:18:38;11.50;;;6.80;;
33794;SDS011;51430;52.242;21.118;2023-02-02T08:21:25;11.40;;;7.20;;
33794;SDS011;51430;52.242;21.118;2023-02-02T08:24:12;12.70;;;7.10;;
33794;SDS011;51430;52.242;21.118;2023-02-02T08:26:59;13.40;;;7.20;;
33794;SDS011;51430;52.242;21.118;2023-02-02T08:29:46;12.00;;;7.50;;
33794;SDS011;51430;52.242;21.118;2023-02-02T08:32:33;15.00;;;10.30;;
33794;SDS011;51430;52.242;21.118;2023-02-02T08:35:19;15.80;;;10.70;;
33794;SDS011;51430;52.242;21.118;2023-02-02T08:38:07;11.00;;;6.00;;
33794;SDS011;51430;52.242;21.118;2023-02-02T08:40:54;12.30;;;7.50;;
33794;SDS011;51430;52.242;21.118;2023-02-02T08:43:41;10.50;;;7.10;;
33794;SDS011;51430;52.242;21.118;2023-02-02T08:46:29;10.80;;;7.10;;
33794;SDS011;51430;52.242;21.118;2023-02-02T08:49:16;11.60;;;8.40;;
33794;SDS011;51430;52.242;21.118;2023-02-02T08:52:03;31.30;;;15.40;;
33794;SDS011;51430;52.242;21.118;2023-02-02T08:54:51;8.40;;;5.00;;
33794;SDS011;51430;52.242;21.118;2023-02-02T08:57:38;10.20;;;6.20;;
33794;SDS011;51430;52.242;21.118;2023-02-02T09:00:25;13.20;;;8.80;;
33794;SDS011;51430;52.242;21.118;2023-02-02T09:03:15;5.40;;;4.30;;
33794;SDS011;51430;52.242;21.118;2023-02-02T09:06:05;7.50;;;5.80;;
33794;SDS011;51430;52.242;21.118;2023-02-02T09:08:53;5.50;;;4.00;;
33794;SDS011;51430;52.242;21.118;2023-02-02T09:11:40;5.20;;;3.80;;
33794;SDS011;51430;52.242;21.118;2023-02-02T09:14:27;4.70;;;3.60;;
33794;SDS011;51430;52.242;21.118;2023-02-02T09:17:14;5.90;;;4.00;;
33794;SDS011;51430;52.242;21.118;2023-02-02T09:20:01;6.60;;;4.10;;
33794;SDS011;51430;52.242;21.118;2023-02-02T09:22:47;6.40;;;4.10;;
33794;SDS011;51430;52.242;21.118;2023-02-02T09:25:34;7.30;;;3.90;;
33794;SDS011;51430;52.242;21.118;2023-02-02T09:33:05;5.80;;;4.80;;
33794;SDS011;51430;52.242;21.118;2023-02-02T09:35:52;6.40;;;4.20;;
33794;SDS011;51430;52.242;21.118;2023-02-02T09:38:40;4.80;;;4.00;;
33794;SDS011;51430;52.242;21.118;2023-02-02T09:45:54;6.90;;;4.70;;
33794;SDS011;51430;52.242;21.118;2023-02-02T09:49:01;5.40;;;4.30;;
33794;SDS011;51430;52.242;21.118;2023-02-02T09:51:57;5.40;;;4.50;;
33794;SDS011;51430;52.242;21.118;2023-02-02T09:54:47;5.60;;;4.60;;
33794;SDS011;51430;52.242;21.118;2023-02-02T09:57:38;7.80;;;5.10;;
33794;SDS011;51430;52.242;21.118;2023-02-02T10:00:30;5.90;;;5.20;;
33794;SDS011;51430;52.242;21.118;2023-02-02T10:07:55;6.00;;;5.30;;
33794;SDS011;51430;52.242;21.118;2023-02-02T10:10:47;6.60;;;5.70;;
33794;SDS011;51430;52.242;21.118;2023-02-02T10:13:37;7.80;;;7.00;;
33794;SDS011;51430;52.242;21.118;2023-02-02T10:16:29;8.40;;;6.40;;
33794;SDS011;51430;52.242;21.118;2023-02-02T10:19:17;6.80;;;6.00;;
33794;SDS011;51430;52.242;21.118;2023-02-02T10:24:58;7.30;;;6.20;;
33794;SDS011;51430;52.242;21.118;2023-02-02T10:27:49;6.90;;;6.30;;
33794;SDS011;51430;52.242;21.118;2023-02-02T10:30:56;7.50;;;6.70;;
33794;SDS011;51430;52.242;21.118;2023-02-02T10:33:53;8.60;;;6.90;;
33794;SDS011;51430;52.242;21.118;2023-02-02T10:37:09;8.60;;;7.30;;
33794;SDS011;51430;52.242;21.118;2023-02-02T10:46:52;8.30;;;6.70;;
33794;SDS011;51430;52.242;21.118;2023-02-02T10:49:43;7.00;;;6.10;;
33794;SDS011;51430;52.242;21.118;2023-02-02T10:52:32;7.40;;;6.00;;
33794;SDS011;51430;52.242;21.118;2023-02-02T11:01:07;7.40;;;6.70;;
33794;SDS011;51430;52.242;21.118;2023-02-02T11:03:57;6.50;;;5.70;;
33794;SDS011;51430;52.242;21.118;2023-02-02T11:07:03;6.70;;;6.00;;
33794;SDS011;51430;52.242;21.118;2023-02-02T11:09:50;7.00;;;6.40;;
33794;SDS011;51430;52.242;21.118;2023-02-02T11:12:41;6.30;;;5.60;;
33794;SDS011;51430;52.242;21.118;2023-02-02T11:15:32;6.60;;;5.90;;
33794;SDS011;51430;52.242;21.118;2023-02-02T11:18:26;6.70;;;6.10;;
33794;SDS011;51430;52.242;21.118;2023-02-02T11:22:38;5.70;;;5.20;;
33794;SDS011;51430;52.242;21.118;2023-02-02T11:27:01;5.80;;;5.30;;
33794;SDS011;51430;52.242;21.118;2023-02-02T11:39:15;6.90;;;6.30;;
33794;SDS011;51430;52.242;21.118;2023-02-02T11:47:20;9.60;;;7.90;;
33794;SDS011;51430;52.242;21.118;2023-02-02T11:51:25;9.00;;;8.10;;
33794;SDS011;51430;52.242;21.118;2023-02-02T11:55:08;9.50;;;8.20;;
33794;SDS011;51430;52.242;21.118;2023-02-02T12:01:49;10.90;;;9.70;;
33794;SDS011;51430;52.242;21.118;2023-02-02T12:04:36;11.50;;;10.40;;
33794;SDS011;51430;52.242;21.118;2023-02-02T12:10:48;11.30;;;10.10;;
33794;SDS011;51430;52.242;21.118;2023-02-02T12:16:18;10.50;;;8.50;;
33794;SDS011;51430;52.242;21.118;2023-02-02T12:39:32;11.60;;;10.40;;
33794;SDS011;51430;52.242;21.118;2023-02-02T13:06:16;8.30;;;7.30;;
33794;SDS011;51430;52.242;21.118;2023-02-02T13:19:54;6.20;;;5.60;;
33794;SDS011;51430;52.242;21.118;2023-02-02T13:33:48;5.90;;;4.00;;
33794;SDS011;51430;52.242;21.118;2023-02-02T13:41:00;4.00;;;3.50;;
33794;SDS011;51430;52.242;21.118;2023-02-02T13:44:37;5.50;;;4.40;;
33794;SDS011;51430;52.242;21.118;2023-02-02T13:58:41;4.60;;;3.40;;
33794;SDS011;51430;52.242;21.118;2023-02-02T14:02:18;4.30;;;3.50;;
33794;SDS011;51430;52.242;21.118;2023-02-02T14:05:28;4.70;;;3.50;;
33794;SDS011;51430;52.242;21.118;2023-02-02T14:08:29;5.40;;;4.00;;
33794;SDS011;51430;52.242;21.118;2023-02-02T14:11:24;5.00;;;3.80;;
33794;SDS011;51430;52.242;21.118;2023-02-02T14:14:20;4.90;;;3.60;;
33794;SDS011;51430;52.242;21.118;2023-02-02T14:22:41;5.10;;;2.90;;
33794;SDS011;51430;52.242;21.118;2023-02-02T14:30:38;3.80;;;3.30;;
33794;SDS011;51430;52.242;21.118;2023-02-02T14:34:42;4.60;;;3.40;;
33794;SDS011;51430;52.242;21.118;2023-02-02T14:38:40;5.10;;;3.50;;
33794;SDS011;51430;52.242;21.118;2023-02-02T14:42:01;3.90;;;2.80;;
33794;SDS011;51430;52.242;21.118;2023-02-02T14:46:38;4.30;;;3.10;;
33794;SDS011;51430;52.242;21.118;2023-02-02T14:54:34;3.60;;;3.10;;
33794;SDS011;51430;52.242;21.118;2023-02-02T14:58:35;4.00;;;3.40;;
33794;SDS011;51430;52.242;21.118;2023-02-02T15:02:32;6.60;;;4.00;;
33794;SDS011;51430;52.242;21.118;2023-02-02T15:06:34;3.80;;;3.40;;
33794;SDS011;51430;52.242;21.118;2023-02-02T15:21:00;5.50;;;3.60;;
33794;SDS011;51430;52.242;21.118;2023-02-02T15:24:04;4.80;;;2.70;;
33794;SDS011;51430;52.242;21.118;2023-02-02T15:43:42;4.60;;;2.90;;
33794;SDS011;51430;52.242;21.118;2023-02-02T15:46:38;3.50;;;2.90;;
33794;SDS011;51430;52.242;21.118;2023-02-02T15:50:43;5.60;;;3.40;;
33794;SDS011;51430;52.242;21.118;2023-02-02T15:58:32;2.90;;;2.30;;
33794;SDS011;51430;52.242;21.118;2023-02-02T16:17:32;4.40;;;2.40;;
33794;SDS011;51430;52.242;21.118;2023-02-02T16:20:36;4.70;;;2.50;;
33794;SDS011;51430;52.242;21.118;2023-02-02T16:28:36;3.40;;;2.40;;
33794;SDS011;51430;52.242;21.118;2023-02-02T16:31:23;3.90;;;2.60;;
33794;SDS011;51430;52.242;21.118;2023-02-02T16:34:56;4.10;;;3.20;;
33794;SDS011;51430;52.242;21.118;2023-02-02T16:37:27;3.70;;;2.60;;
33794;SDS011;51430;52.242;21.118;2023-02-02T16:40:23;4.50;;;2.60;;
33794;SDS011;51430;52.242;21.118;2023-02-02T16:43:17;3.40;;;2.70;;
33794;SDS011;51430;52.242;21.118;2023-02-02T16:46:10;4.70;;;2.80;;
33794;SDS011;51430;52.242;21.118;2023-02-02T16:48:58;3.70;;;2.30;;
33794;SDS011;51430;52.242;21.118;2023-02-02T16:51:46;3.10;;;2.50;;
33794;SDS011;51430;52.242;21.118;2023-02-02T16:55:16;4.30;;;2.50;;
33794;SDS011;51430;52.242;21.118;2023-02-02T16:58:04;4.30;;;2.80;;
33794;SDS011;51430;52.242;21.118;2023-02-02T17:01:02;3.40;;;2.50;;
33794;SDS011;51430;52.242;21.118;2023-02-02T17:04:01;4.10;;;2.30;;
33794;SDS011;51430;52.242;21.118;2023-02-02T17:06:50;3.80;;;2.60;;
33794;SDS011;51430;52.242;21.118;2023-02-02T17:09:39;5.00;;;2.60;;
33794;SDS011;51430;52.242;21.118;2023-02-02T17:12:28;4.40;;;2.70;;
33794;SDS011;51430;52.242;21.118;2023-02-02T17:15:38;4.00;;;2.60;;
33794;SDS011;51430;52.242;21.118;2023-02-02T17:18:25;5.00;;;2.50;;
33794;SDS011;51430;52.242;21.118;2023-02-02T17:21:21;4.30;;;2.70;;
33794;SDS011;51430;52.242;21.118;2023-02-02T17:24:09;5.10;;;2.90;;
33794;SDS011;51430;52.242;21.118;2023-02-02T17:26:57;4.60;;;2.60;;
33794;SDS011;51430;52.242;21.118;2023-02-02T17:29:44;4.00;;;2.90;;
33794;SDS011;51430;52.242;21.118;2023-02-02T17:32:31;4.60;;;3.00;;
33794;SDS011;51430;52.242;21.118;2023-02-02T17:37:40;3.40;;;2.70;;
33794;SDS011;51430;52.242;21.118;2023-02-02T17:40:26;5.00;;;3.20;;
33794;SDS011;51430;52.242;21.118;2023-02-02T17:43:13;4.80;;;3.80;;
33794;SDS011;51430;52.242;21.118;2023-02-02T17:49:31;6.80;;;3.80;;
33794;SDS011;51430;52.242;21.118;2023-02-02T17:54:11;5.30;;;3.20;;
33794;SDS011;51430;52.242;21.118;2023-02-02T18:08:12;5.60;;;3.40;;
33794;SDS011;51430;52.242;21.118;2023-02-02T18:11:08;5.60;;;3.70;;
33794;SDS011;51430;52.242;21.118;2023-02-02T18:13:57;5.80;;;3.80;;
33794;SDS011;51430;52.242;21.118;2023-02-02T18:16:44;4.60;;;3.60;;
33794;SDS011;51430;52.242;21.118;2023-02-02T18:19:31;4.10;;;3.40;;
33794;SDS011;51430;52.242;21.118;2023-02-02T18:22:18;5.80;;;4.00;;
33794;SDS011;51430;52.242;21.118;2023-02-02T18:25:05;5.70;;;3.90;;
33794;SDS011;51430;52.242;21.118;2023-02-02T18:27:52;4.90;;;3.30;;
33794;SDS011;51430;52.242;21.118;2023-02-02T18:30:42;4.70;;;3.30;;
33794;SDS011;51430;52.242;21.118;2023-02-02T18:33:30;4.60;;;3.80;;
33794;SDS011;51430;52.242;21.118;2023-02-02T18:36:19;5.10;;;3.70;;
33794;SDS011;51430;52.242;21.118;2023-02-02T18:39:06;5.60;;;4.00;;
33794;SDS011;51430;52.242;21.118;2023-02-02T18:41:55;6.80;;;4.20;;
33794;SDS011;51430;52.242;21.118;2023-02-02T18:44:42;6.20;;;4.30;;
33794;SDS011;51430;52.242;21.118;2023-02-02T18:47:29;5.90;;;4.10;;
33794;SDS011;51430;52.242;21.118;2023-02-02T18:50:16;5.60;;;4.00;;
33794;SDS011;51430;52.242;21.118;2023-02-02T18:53:02;5.40;;;3.90;;
33794;SDS011;51430;52.242;21.118;2023-02-02T18:55:49;5.30;;;3.70;;
33794;SDS011;51430;52.242;21.118;2023-02-02T18:58:43;6.20;;;3.90;;
33794;SDS011;51430;52.242;21.118;2023-02-02T19:01:34;4.80;;;3.90;;
33794;SDS011;51430;52.242;21.118;2023-02-02T19:04:25;5.50;;;4.40;;
33794;SDS011;51430;52.242;21.118;2023-02-02T19:07:18;5.80;;;4.30;;
33794;SDS011;51430;52.242;21.118;2023-02-02T19:10:24;6.20;;;5.50;;
33794;SDS011;51430;52.242;21.118;2023-02-02T19:13:17;6.10;;;4.80;;
33794;SDS011;51430;52.242;21.118;2023-02-02T19:16:10;6.10;;;5.50;;
33794;SDS011;51430;52.242;21.118;2023-02-02T19:19:06;5.70;;;4.30;;
33794;SDS011;51430;52.242;21.118;2023-02-02T19:21:59;5.70;;;4.60;;
33794;SDS011;51430;52.242;21.118;2023-02-02T19:25:11;5.60;;;4.40;;
33794;SDS011;51430;52.242;21.118;2023-02-02T19:28:01;5.30;;;4.30;;
33794;SDS011;51430;52.242;21.118;2023-02-02T19:31:11;5.80;;;4.30;;
33794;SDS011;51430;52.242;21.118;2023-02-02T19:34:00;4.60;;;3.80;;
33794;SDS011;51430;52.242;21.118;2023-02-02T19:36:49;6.20;;;4.20;;
33794;SDS011;51430;52.242;21.118;2023-02-02T19:39:36;5.80;;;4.00;;
33794;SDS011;51430;52.242;21.118;2023-02-02T19:42:22;5.50;;;4.20;;
33794;SDS011;51430;52.242;21.118;2023-02-02T19:45:29;4.70;;;4.20;;
33794;SDS011;51430;52.242;21.118;2023-02-02T19:48:30;5.70;;;4.10;;
33794;SDS011;51430;52.242;21.118;2023-02-02T19:51:42;6.00;;;4.20;;
33794;SDS011;51430;52.242;21.118;2023-02-02T19:54:40;5.20;;;4.20;;
33794;SDS011;51430;52.242;21.118;2023-02-02T20:00:23;5.40;;;4.20;;
33794;SDS011;51430;52.242;21.118;2023-02-02T20:03:19;5.50;;;4.00;;
33794;SDS011;51430;52.242;21.118;2023-02-02T20:06:11;5.00;;;4.20;;
33794;SDS011;51430;52.242;21.118;2023-02-02T20:09:12;6.10;;;4.60;;
33794;SDS011;51430;52.242;21.118;2023-02-02T20:12:11;7.30;;;5.30;;
33794;SDS011;51430;52.242;21.118;2023-02-02T20:18:20;8.60;;;5.90;;
33794;SDS011;51430;52.242;21.118;2023-02-02T20:21:21;9.50;;;5.80;;
33794;SDS011;51430;52.242;21.118;2023-02-02T20:24:21;6.50;;;5.80;;
33794;SDS011;51430;52.242;21.118;2023-02-02T20:27:15;6.90;;;5.50;;
33794;SDS011;51430;52.242;21.118;2023-02-02T20:30:15;6.90;;;5.60;;
33794;SDS011;51430;52.242;21.118;2023-02-02T20:33:14;7.20;;;5.30;;
33794;SDS011;51430;52.242;21.118;2023-02-02T20:36:39;9.40;;;5.00;;
33794;SDS011;51430;52.242;21.118;2023-02-02T20:42:13;7.20;;;5.80;;
33794;SDS011;51430;52.242;21.118;2023-02-02T20:45:03;7.30;;;5.90;;
33794;SDS011;51430;52.242;21.118;2023-02-02T20:47:51;6.30;;;5.60;;
33794;SDS011;51430;52.242;21.118;2023-02-02T20:50:38;7.10;;;5.40;;
33794;SDS011;51430;52.242;21.118;2023-02-02T20:53:25;5.50;;;4.70;;
33794;SDS011;51430;52.242;21.118;2023-02-02T20:56:12;5.60;;;4.70;;
33794;SDS011;51430;52.242;21.118;2023-02-02T20:58:59;5.20;;;4.50;;
33794;SDS011;51430;52.242;21.118;2023-02-02T21:01:46;4.80;;;4.20;;
33794;SDS011;51430;52.242;21.118;2023-02-02T21:04:35;5.70;;;4.40;;
33794;SDS011;51430;52.242;21.118;2023-02-02T21:07:21;5.40;;;4.30;;
33794;SDS011;51430;52.242;21.118;2023-02-02T21:10:08;6.10;;;4.60;;
33794;SDS011;51430;52.242;21.118;2023-02-02T21:12:55;6.80;;;4.60;;
33794;SDS011;51430;52.242;21.118;2023-02-02T21:15:42;4.90;;;4.40;;
33794;SDS011;51430;52.242;21.118;2023-02-02T21:18:29;5.20;;;4.40;;
33794;SDS011;51430;52.242;21.118;2023-02-02T21:21:16;6.10;;;4.60;;
33794;SDS011;51430;52.242;21.118;2023-02-02T21:24:04;5.50;;;4.60;;
33794;SDS011;51430;52.242;21.118;2023-02-02T21:26:51;5.80;;;4.60;;
33794;SDS011;51430;52.242;21.118;2023-02-02T21:29:39;5.80;;;4.90;;
33794;SDS011;51430;52.242;21.118;2023-02-02T21:32:25;7.40;;;5.30;;
33794;SDS011;51430;52.242;21.118;2023-02-02T21:35:12;5.80;;;5.20;;
33794;SDS011;51430;52.242;21.118;2023-02-02T21:38:01;7.20;;;5.80;;
33794;SDS011;51430;52.242;21.118;2023-02-02T21:40:58;6.60;;;5.40;;
33794;SDS011;51430;52.242;21.118;2023-02-02T21:43:45;6.50;;;5.50;;
33794;SDS011;51430;52.242;21.118;2023-02-02T21:46:32;6.30;;;5.30;;
33794;SDS011;51430;52.242;21.118;2023-02-02T21:49:34;7.00;;;5.80;;
33794;SDS011;51430;52.242;21.118;2023-02-02T21:52:22;7.80;;;5.80;;
33794;SDS011;51430;52.242;21.118;2023-02-02T22:04:02;11.20;;;10.00;;
33794;SDS011;51430;52.242;21.118;2023-02-02T22:06:52;10.60;;;9.50;;
33794;SDS011;51430;52.242;21.118;2023-02-02T22:09:42;9.40;;;8.20;;
33794;SDS011;51430;52.242;21.118;2023-02-02T22:12:30;9.00;;;8.00;;
33794;SDS011;51430;52.242;21.118;2023-02-02T22:15:19;10.70;;;9.10;;
33794;SDS011;51430;52.242;21.118;2023-02-02T22:18:10;11.10;;;9.20;;
33794;SDS011;51430;52.242;21.118;2023-02-02T22:21:09;9.90;;;8.90;;
33794;SDS011;51430;52.242;21.118;2023-02-02T22:23:58;11.10;;;9.30;;
33794;SDS011;51430;52.242;21.118;2023-02-02T22:26:45;11.00;;;9.50;;
33794;SDS011;51430;52.242;21.118;2023-02-02T22:29:33;11.10;;;10.00;;
33794;SDS011;51430;52.242;21.118;2023-02-02T22:32:20;11.40;;;10.10;;
33794;SDS011;51430;52.242;21.118;2023-02-02T22:35:07;10.90;;;9.20;;
33794;SDS011;51430;52.242;21.118;2023-02-02T22:37:53;10.50;;;9.40;;
33794;SDS011;51430;52.242;21.118;2023-02-02T22:40:40;10.70;;;9.60;;
33794;SDS011;51430;52.242;21.118;2023-02-02T22:43:27;10.20;;;9.20;;
33794;SDS011;51430;52.242;21.118;2023-02-02T22:46:13;10.20;;;9.20;;
33794;SDS011;51430;52.242;21.118;2023-02-02T22:49:00;10.60;;;9.10;;
33794;SDS011;51430;52.242;21.118;2023-02-02T22:51:46;12.00;;;9.80;;
33794;SDS011;51430;52.242;21.118;2023-02-02T22:54:33;10.20;;;9.10;;
33794;SDS011;51430;52.242;21.118;2023-02-02T22:57:19;9.80;;;8.80;;
33794;SDS011;51430;52.242;21.118;2023-02-02T23:00:18;11.20;;;9.70;;
33794;SDS011;51430;52.242;21.118;2023-02-02T23:03:07;11.50;;;9.70;;
33794;SDS011;51430;52.242;21.118;2023-02-02T23:05:54;12.10;;;9.70;;
33794;SDS011;51430;52.242;21.118;2023-02-02T23:08:40;11.10;;;9.80;;
33794;SDS011;51430;52.242;21.118;2023-02-02T23:11:27;11.00;;;9.80;;
33794;SDS011;51430;52.242;21.118;2023-02-02T23:14:15;10.50;;;9.40;;
33794;SDS011;51430;52.242;21.118;2023-02-02T23:17:02;10.20;;;9.20;;
33794;SDS011;51430;52.242;21.118;2023-02-02T23:19:48;10.50;;;9.40;;
33794;SDS011;51430;52.242;21.118;2023-02-02T23:22:35;10.20;;;9.00;;
33794;SDS011;51430;52.242;21.118;2023-02-02T23:25:22;10.60;;;8.70;;
33794;SDS011;51430;52.242;21.118;2023-02-02T23:28:08;9.30;;;8.40;;
33794;SDS011;51430;52.242;21.118;2023-02-02T23:30:55;9.60;;;8.60;;
33794;SDS011;51430;52.242;21.118;2023-02-02T23:33:45;10.50;;;8.00;;
33794;SDS011;51430;52.242;21.118;2023-02-02T23:36:31;11.00;;;8.10;;